Aeroporto :
LOGIN :

Iscrizione | Disclaimer

   EN    FR    IT 

 










Sommario :    VFR   VFR Marginale   IFR   IFR Intensivo   IFR Molto Intensivo
Visibilità : 
Base nubi : 
>= 8 km
>= 3000ft
5 / 8 km
1000 / 3000 ft
1500m / 5 km
500 / 1000 ft
800 / 1500m
200 / 500 ft
< 800m
< 200 ft
Simboli :   Temporali  Nebbia  Neve Forte  Precipitazioni Forti  Vento > 20 kt
SIGMETs :   Varie  Temporali  Ghiacco  Turbolenza  Onda orograficha  Ceneri Vulcaniche






- Altitudine del aeroporto : 7 ft
- Codice IATA : POW


LJPZ - Portoroz

ULTIMO METAR :
  • 141330Z 23005KT 190V280 CAVOK 26/14 Q1021

METARs OBSOLETI :
  • 141300Z 23005KT 200V280 CAVOK 26/14 Q1022
  • 141230Z 24005KT CAVOK 26/14 Q1022
  • 141200Z 23004KT 160V280 CAVOK 26/12 Q1022
  • 141130Z 24005KT 210V280 CAVOK 26/13 Q1023
  • 141100Z 30004KT 240V340 CAVOK 26/14 Q1023
  • 141030Z 31004KT CAVOK 26/14 Q1023
  • 141000Z 30004KT 270V330 CAVOK 25/13 Q1023
  • 140930Z 31004KT CAVOK 25/13 Q1023
  • 140900Z VRB02KT CAVOK 25/14 Q1023

TAF TAF LJPZ
Valido dal 14 a 12 ore il 14 a 21 ore UTC


141100Z 1412/1421 30005KT CAVOK



MetMap, La meteo Aeronautica in un colpo d'occhio ! - Copyright ORBIFLY Dicembre 2007 - Disclaimer

ORBIFLY MET'MAP TEAM :

Programmazione e sviluppo : Alexandra Zaïnal
Concezione : Baudouin d'Aumeries
Supporto tecnico e logistico : Manuel Goepfert
Aiuto : Marc-Olivier Méhu
Aiuto per la traduzione : Arnaldo La Scala




FONTI E CREDITI :

   NOAA